createdAt,value
2023-03-29T00:01:01.869Z,27.82
2023-03-29T00:03:30.990Z,28.17
2023-03-29T00:06:03.297Z,28.04
2023-03-29T00:08:34.209Z,28.03
2023-03-29T00:11:02.663Z,27.96
2023-03-29T00:13:31.425Z,28.06
2023-03-29T00:15:59.578Z,27.75
2023-03-29T00:18:28.173Z,27.96
2023-03-29T00:20:57.744Z,28.00
2023-03-29T00:23:26.659Z,28.26
2023-03-29T00:25:56.364Z,27.88
2023-03-29T00:28:25.701Z,28.06
2023-03-29T00:30:55.064Z,28.14
2023-03-29T00:33:23.720Z,28.20
2023-03-29T00:35:53.593Z,28.01
2023-03-29T00:38:22.311Z,28.10
2023-03-29T00:40:50.679Z,27.92
2023-03-29T00:43:19.753Z,27.97
2023-03-29T00:45:48.108Z,28.22
2023-03-29T00:48:30.408Z,28.31
2023-03-29T00:51:04.807Z,27.93
2023-03-29T00:53:40.568Z,28.05
2023-03-29T00:56:22.083Z,27.95
2023-03-29T00:58:55.437Z,28.33
2023-03-29T01:01:38.306Z,28.20
2023-03-29T01:04:58.387Z,28.30
2023-03-29T01:07:31.047Z,28.28
2023-03-29T01:10:07.047Z,28.07
2023-03-29T01:12:44.306Z,28.13
2023-03-29T01:15:16.242Z,27.97
2023-03-29T01:17:50.633Z,28.21
2023-03-29T01:20:36.287Z,27.86
2023-03-29T01:23:07.551Z,27.93
2023-03-29T01:26:01.438Z,28.16
2023-03-29T01:28:36.877Z,28.21
2023-03-29T01:31:11.521Z,28.07
2023-03-29T01:33:46.898Z,28.00
2023-03-29T01:36:27.360Z,28.27
2023-03-29T01:39:05.478Z,28.06
2023-03-29T01:41:49.762Z,27.96
2023-03-29T01:44:32.849Z,28.04
2023-03-29T01:47:12.114Z,28.20
2023-03-29T01:50:06.981Z,27.86
2023-03-29T01:52:40.634Z,28.11
2023-03-29T01:55:17.553Z,28.16
2023-03-29T01:57:48.045Z,28.50
2023-03-29T02:00:25.090Z,28.10
2023-03-29T02:02:57.363Z,28.03
2023-03-29T02:05:29.183Z,28.11
2023-03-29T02:08:01.085Z,28.29
2023-03-29T02:10:30.732Z,28.51
2023-03-29T02:12:59.838Z,28.24
2023-03-29T02:15:28.366Z,28.29
2023-03-29T02:17:57.489Z,28.09
2023-03-29T02:20:31.763Z,28.29
2023-03-29T02:23:15.847Z,28.29
2023-03-29T02:25:45.857Z,28.03
2023-03-29T02:28:15.154Z,28.27
2023-03-29T02:31:03.628Z,28.43
2023-03-29T02:34:02.479Z,28.29
2023-03-29T02:36:52.154Z,28.20
2023-03-29T02:39:21.729Z,28.33
2023-03-29T02:41:51.448Z,28.47
2023-03-29T02:44:23.410Z,28.40
2023-03-29T02:46:54.962Z,28.55
2023-03-29T02:49:24.083Z,28.34
2023-03-29T02:51:56.286Z,28.35
2023-03-29T02:54:30.213Z,28.22
2023-03-29T02:57:01.987Z,28.15
2023-03-29T02:59:31.125Z,28.18
2023-03-29T03:02:00.873Z,28.29
2023-03-29T03:04:30.702Z,28.19
2023-03-29T03:06:59.095Z,28.49
2023-03-29T03:09:27.818Z,28.59
2023-03-29T03:11:56.393Z,27.96
2023-03-29T03:14:28.574Z,28.16
2023-03-29T03:16:59.931Z,28.24
2023-03-29T03:19:30.232Z,28.31
2023-03-29T03:22:00.119Z,28.28
2023-03-29T03:24:28.891Z,28.33
2023-03-29T03:26:58.589Z,28.38
2023-03-29T03:29:28.592Z,28.27
2023-03-29T03:32:18.750Z,28.50
2023-03-29T03:35:10.174Z,28.50
2023-03-29T03:37:39.357Z,28.46
2023-03-29T03:40:09.638Z,28.33
2023-03-29T03:42:39.795Z,28.58
2023-03-29T03:45:09.957Z,28.43
2023-03-29T03:47:52.227Z,28.63
2023-03-29T03:50:41.174Z,28.52
2023-03-29T03:53:10.007Z,28.51
2023-03-29T03:55:57.523Z,28.57
2023-03-29T03:58:31.575Z,28.61
2023-03-29T04:01:00.508Z,28.64
2023-03-29T04:03:39.799Z,28.77
2023-03-29T04:06:11.506Z,28.72
2023-03-29T04:09:00.023Z,28.84
2023-03-29T04:11:53.385Z,28.85
2023-03-29T04:14:21.911Z,28.93
2023-03-29T04:17:08.207Z,29.04
2023-03-29T04:19:48.188Z,29.10
2023-03-29T04:22:17.376Z,28.96
2023-03-29T04:24:45.885Z,28.99
2023-03-29T04:27:39.560Z,29.00
2023-03-29T04:30:17.254Z,29.27
2023-03-29T04:33:24.087Z,29.28
2023-03-29T04:36:00.432Z,29.37
2023-03-29T04:38:29.538Z,29.18
2023-03-29T04:40:58.420Z,29.43
2023-03-29T04:43:50.281Z,29.35
2023-03-29T04:46:26.893Z,29.35
2023-03-29T04:49:13.651Z,29.33
2023-03-29T04:51:46.075Z,29.26
2023-03-29T04:54:14.665Z,29.35
2023-03-29T04:57:01.129Z,29.34
2023-03-29T04:59:44.602Z,29.24
2023-03-29T05:02:22.830Z,29.42
2023-03-29T05:04:52.870Z,29.41
2023-03-29T05:07:21.326Z,29.58
2023-03-29T05:09:51.065Z,29.32
2023-03-29T05:12:19.332Z,29.30
2023-03-29T05:14:55.005Z,29.27
2023-03-29T05:17:27.698Z,29.26
2023-03-29T05:20:10.464Z,29.31
2023-03-29T05:22:40.543Z,29.26
2023-03-29T05:25:13.742Z,29.56
2023-03-29T05:27:46.087Z,29.55
2023-03-29T05:30:15.605Z,29.46
2023-03-29T05:32:53.134Z,29.34
2023-03-29T05:35:26.449Z,29.37
2023-03-29T05:37:56.806Z,29.19
2023-03-29T05:40:26.455Z,29.21
2023-03-29T05:43:18.156Z,29.22
2023-03-29T05:45:47.012Z,29.05
2023-03-29T05:48:15.354Z,29.31
2023-03-29T05:50:49.385Z,29.30
2023-03-29T05:53:20.921Z,29.24
2023-03-29T05:55:51.552Z,29.49
2023-03-29T05:58:21.871Z,29.39
2023-03-29T06:00:51.517Z,29.54
2023-03-29T06:03:53.018Z,29.66
2023-03-29T06:06:25.940Z,29.98
2023-03-29T06:08:54.303Z,29.83
2023-03-29T06:11:33.313Z,29.58
2023-03-29T06:14:19.714Z,29.64
2023-03-29T06:16:55.265Z,29.60
2023-03-29T06:19:24.456Z,29.61
2023-03-29T06:21:54.596Z,29.71
2023-03-29T06:24:27.324Z,29.61
2023-03-29T06:27:03.264Z,29.69
2023-03-29T06:29:32.475Z,29.50
2023-03-29T06:32:02.295Z,29.54
2023-03-29T06:34:52.657Z,29.61
2023-03-29T06:37:49.616Z,29.50
2023-03-29T06:40:33.692Z,29.70
2023-03-29T06:43:02.450Z,29.81
2023-03-29T06:45:40.860Z,29.74
2023-03-29T06:48:18.877Z,29.82
2023-03-29T06:50:48.696Z,29.64
2023-03-29T06:53:18.447Z,29.67
2023-03-29T06:55:55.306Z,29.61
2023-03-29T06:58:45.265Z,29.38
2023-03-29T07:01:35.023Z,29.52
2023-03-29T07:04:19.168Z,29.39
2023-03-29T07:07:12.291Z,29.13
2023-03-29T07:09:41.038Z,29.12
2023-03-29T07:12:24.699Z,29.13
2023-03-29T07:14:56.555Z,28.87
2023-03-29T07:17:30.220Z,28.88
2023-03-29T07:19:59.037Z,28.69
2023-03-29T07:22:44.143Z,28.84
2023-03-29T07:25:13.295Z,28.99
2023-03-29T07:27:42.977Z,28.31
2023-03-29T07:30:18.059Z,28.49
2023-03-29T07:32:46.696Z,28.33
2023-03-29T07:35:34.145Z,28.41
2023-03-29T07:38:03.043Z,28.45
2023-03-29T07:40:32.220Z,28.46
2023-03-29T07:43:01.537Z,28.47
2023-03-29T07:45:34.035Z,28.55
2023-03-29T07:48:07.367Z,28.35
2023-03-29T07:50:57.021Z,28.10
2023-03-29T07:53:31.271Z,28.36
2023-03-29T07:56:03.627Z,28.20
2023-03-29T07:58:47.065Z,28.37
2023-03-29T08:01:19.365Z,28.40
2023-03-29T08:04:13.137Z,28.30
2023-03-29T08:07:00.206Z,28.39
2023-03-29T08:09:45.238Z,28.34
2023-03-29T08:12:13.841Z,28.42
2023-03-29T08:14:42.134Z,28.37
2023-03-29T08:17:19.060Z,28.47
2023-03-29T08:19:51.838Z,28.59
2023-03-29T08:22:25.704Z,28.51
2023-03-29T08:25:20.389Z,28.57
2023-03-29T08:27:53.750Z,28.58
2023-03-29T08:30:34.375Z,28.67
2023-03-29T08:33:04.646Z,28.66
2023-03-29T08:35:33.078Z,28.49
2023-03-29T08:38:12.900Z,28.80
2023-03-29T08:40:41.549Z,29.02
2023-03-29T08:43:49.689Z,29.18
2023-03-29T08:47:00.657Z,28.96
2023-03-29T08:49:51.513Z,28.95
2023-03-29T08:52:38.787Z,28.99
2023-03-29T08:55:32.166Z,29.17
2023-03-29T08:58:29.221Z,29.33
2023-03-29T09:01:01.097Z,29.37
2023-03-29T09:03:50.332Z,29.26
2023-03-29T09:06:31.475Z,29.15
2023-03-29T09:09:18.268Z,29.23
2023-03-29T09:12:04.769Z,28.95
2023-03-29T09:14:48.644Z,29.17
2023-03-29T09:17:23.556Z,29.05
2023-03-29T09:20:27.748Z,29.08
2023-03-29T09:23:02.624Z,29.20
2023-03-29T09:25:58.919Z,29.67
2023-03-29T09:29:09.569Z,29.55
2023-03-29T09:31:45.128Z,29.44
2023-03-29T09:34:24.215Z,29.55
2023-03-29T09:37:04.532Z,29.61
2023-03-29T09:39:33.440Z,29.54
2023-03-29T09:42:12.911Z,29.63
2023-03-29T09:44:52.837Z,29.40
2023-03-29T09:47:30.462Z,29.44
2023-03-29T09:50:27.284Z,29.50
2023-03-29T09:52:59.877Z,29.67
2023-03-29T09:55:34.029Z,29.70
2023-03-29T09:58:27.741Z,29.64
2023-03-29T10:01:02.254Z,29.85
2023-03-29T10:03:32.344Z,30.13
2023-03-29T10:06:11.217Z,30.33
2023-03-29T10:08:50.744Z,30.34
2023-03-29T10:11:29.057Z,30.34
2023-03-29T10:14:02.233Z,30.39
2023-03-29T10:16:37.329Z,30.53
2023-03-29T10:19:35.821Z,30.52
2023-03-29T10:22:19.106Z,30.74
2023-03-29T10:24:52.466Z,30.75
2023-03-29T10:27:27.504Z,30.79
2023-03-29T10:29:57.417Z,30.74
2023-03-29T10:32:34.916Z,30.86
2023-03-29T10:35:38.406Z,31.14
2023-03-29T10:38:12.364Z,31.46
2023-03-29T10:40:47.707Z,31.56
2023-03-29T10:43:35.504Z,31.76
2023-03-29T10:46:20.976Z,32.04
2023-03-29T10:49:00.714Z,31.75
2023-03-29T10:51:32.866Z,31.69
2023-03-29T10:54:03.103Z,32.23
2023-03-29T10:56:43.376Z,32.43
2023-03-29T10:59:34.233Z,32.27
2023-03-29T11:02:14.695Z,32.39
2023-03-29T11:05:20.539Z,32.70
2023-03-29T11:07:59.818Z,32.92
2023-03-29T11:10:34.750Z,32.99
2023-03-29T11:13:16.944Z,32.91
2023-03-29T11:16:03.347Z,32.95
2023-03-29T11:18:41.915Z,33.20
2023-03-29T11:21:38.106Z,33.18
2023-03-29T11:24:31.519Z,33.47
2023-03-29T11:27:12.140Z,33.49
2023-03-29T11:29:45.800Z,33.47
2023-03-29T11:32:20.290Z,33.70
2023-03-29T11:35:13.918Z,33.51
2023-03-29T11:38:08.172Z,33.90
2023-03-29T11:41:27.270Z,34.14
2023-03-29T11:44:13.881Z,33.78
2023-03-29T11:47:08.504Z,34.20
2023-03-29T11:50:06.705Z,34.23
2023-03-29T11:52:43.861Z,34.06
2023-03-29T11:55:34.031Z,33.89
2023-03-29T11:58:19.389Z,34.29
2023-03-29T12:00:58.840Z,34.24
2023-03-29T12:03:54.120Z,34.28
2023-03-29T12:06:32.181Z,34.37
2023-03-29T12:09:33.610Z,34.40
2023-03-29T12:12:12.949Z,34.21
2023-03-29T12:14:58.722Z,34.17
2023-03-29T12:17:52.185Z,34.23
2023-03-29T12:20:31.449Z,34.27
2023-03-29T12:23:07.064Z,33.93
2023-03-29T12:25:45.476Z,33.73
2023-03-29T12:28:29.730Z,33.90
2023-03-29T12:31:17.666Z,33.70
2023-03-29T12:34:05.234Z,33.61
2023-03-29T12:37:17.432Z,33.69
2023-03-29T12:39:49.397Z,33.47
2023-03-29T12:42:54.852Z,34.12
2023-03-29T12:45:48.833Z,33.67
2023-03-29T12:48:29.036Z,33.78
2023-03-29T12:51:02.738Z,33.41
2023-03-29T12:53:31.006Z,33.58
2023-03-29T12:56:03.994Z,33.58
2023-03-29T12:58:50.757Z,33.52
2023-03-29T13:01:34.492Z,33.79
2023-03-29T13:07:05.962Z,33.65
2023-03-29T13:09:47.921Z,33.52
2023-03-29T13:12:16.457Z,33.57
2023-03-29T13:14:54.879Z,33.72
2023-03-29T13:17:32.179Z,33.59
2023-03-29T13:20:25.906Z,33.84
2023-03-29T13:23:00.802Z,33.68
2023-03-29T13:26:07.872Z,33.87
2023-03-29T13:29:19.163Z,33.85
2023-03-29T13:32:16.984Z,33.88
2023-03-29T13:34:47.509Z,33.84
2023-03-29T13:37:34.163Z,34.04
2023-03-29T13:40:05.097Z,34.13
2023-03-29T13:42:33.361Z,34.09
2023-03-29T13:45:23.292Z,34.24
2023-03-29T13:48:05.377Z,34.01
2023-03-29T13:50:40.557Z,33.75
2023-03-29T13:53:31.824Z,34.07
2023-03-29T13:56:00.932Z,33.68
2023-03-29T13:58:48.213Z,33.50
2023-03-29T14:01:26.168Z,33.47
2023-03-29T14:03:56.081Z,33.13
2023-03-29T14:06:30.615Z,33.34
2023-03-29T14:09:05.149Z,33.36
2023-03-29T14:11:35.342Z,33.32
2023-03-29T14:14:08.697Z,33.52
2023-03-29T14:16:39.865Z,33.44
2023-03-29T14:19:26.832Z,33.49
2023-03-29T14:21:55.678Z,33.45
2023-03-29T14:24:27.344Z,33.66
2023-03-29T14:26:56.025Z,33.62
2023-03-29T14:29:25.555Z,33.38
2023-03-29T14:31:54.362Z,33.27
2023-03-29T14:34:23.294Z,33.39
2023-03-29T14:36:54.300Z,33.43
2023-03-29T14:39:23.665Z,33.42
2023-03-29T14:41:54.583Z,33.31
2023-03-29T14:44:26.208Z,33.56
2023-03-29T14:46:56.336Z,33.31
2023-03-29T14:49:24.844Z,33.47
2023-03-29T14:51:55.020Z,33.20
2023-03-29T14:54:27.203Z,33.46
2023-03-29T14:56:56.081Z,33.36
2023-03-29T14:59:42.301Z,33.47
2023-03-29T15:02:26.728Z,33.19
2023-03-29T15:05:24.943Z,33.70
2023-03-29T15:07:56.465Z,33.73
2023-03-29T15:10:24.838Z,33.51
2023-03-29T15:12:54.099Z,33.78
2023-03-29T15:15:24.467Z,33.73
2023-03-29T15:17:53.425Z,33.59
2023-03-29T15:20:25.328Z,33.78
2023-03-29T15:23:04.766Z,33.85
2023-03-29T15:25:36.140Z,34.20
2023-03-29T15:28:31.378Z,34.11
2023-03-29T15:31:14.477Z,34.20
2023-03-29T15:33:44.255Z,34.30
2023-03-29T15:36:14.455Z,34.12
2023-03-29T15:38:45.225Z,34.16
2023-03-29T15:41:15.820Z,34.36
2023-03-29T15:43:45.025Z,34.17
2023-03-29T15:46:16.947Z,34.52
2023-03-29T15:48:48.032Z,34.62
2023-03-29T15:51:16.809Z,34.45
2023-03-29T15:53:45.582Z,34.64
2023-03-29T15:56:18.345Z,34.77
2023-03-29T15:58:48.058Z,34.91
2023-03-29T16:01:34.907Z,34.78
2023-03-29T16:04:11.406Z,34.84
2023-03-29T16:06:41.279Z,34.91
2023-03-29T16:09:12.278Z,34.88
2023-03-29T16:11:41.920Z,35.01
2023-03-29T16:14:21.421Z,35.04
2023-03-29T16:16:50.632Z,35.33
2023-03-29T16:19:19.550Z,35.36
2023-03-29T16:21:48.568Z,35.40
2023-03-29T16:24:19.985Z,35.44
2023-03-29T16:26:48.751Z,35.44
2023-03-29T16:29:18.360Z,35.43
2023-03-29T16:31:48.068Z,35.31
2023-03-29T16:34:18.994Z,35.71
2023-03-29T16:36:48.023Z,35.61
2023-03-29T16:39:18.465Z,35.82
2023-03-29T16:41:50.426Z,35.83
2023-03-29T16:44:23.624Z,35.76
2023-03-29T16:46:58.589Z,35.67
2023-03-29T16:49:27.430Z,36.77
2023-03-29T16:51:56.302Z,37.77
2023-03-29T16:54:26.046Z,38.46
2023-03-29T16:56:54.545Z,38.66
2023-03-29T16:59:23.991Z,38.68
2023-03-29T17:01:52.420Z,38.64
2023-03-29T17:04:24.731Z,38.92
2023-03-29T17:06:53.730Z,38.99
2023-03-29T17:09:22.462Z,39.05
2023-03-29T17:11:51.130Z,39.30
2023-03-29T17:14:19.936Z,39.08
2023-03-29T17:16:48.246Z,39.24
2023-03-29T17:19:16.974Z,39.22
2023-03-29T17:21:46.205Z,39.05
2023-03-29T17:24:15.099Z,39.44
2023-03-29T17:26:45.806Z,38.87
2023-03-29T17:29:14.816Z,38.98
2023-03-29T17:31:48.915Z,39.09
2023-03-29T17:34:19.366Z,39.09
2023-03-29T17:36:49.124Z,39.31
2023-03-29T17:39:19.007Z,39.26
2023-03-29T17:41:47.632Z,40.49
2023-03-29T17:44:16.288Z,40.50
2023-03-29T17:46:44.651Z,40.83
2023-03-29T17:49:14.312Z,40.05
2023-03-29T17:51:42.802Z,40.41
2023-03-29T17:54:12.317Z,40.18
2023-03-29T17:56:41.038Z,40.09
2023-03-29T17:59:09.800Z,39.56
2023-03-29T18:01:39.446Z,39.55
2023-03-29T18:04:08.963Z,39.24
2023-03-29T18:06:37.580Z,39.28
2023-03-29T18:09:06.390Z,38.86
2023-03-29T18:11:36.584Z,39.78
2023-03-29T18:14:05.634Z,40.22
2023-03-29T18:16:34.306Z,40.07
2023-03-29T18:19:03.353Z,40.85
2023-03-29T18:21:31.695Z,40.72
2023-03-29T18:24:00.841Z,40.12
2023-03-29T18:26:30.027Z,39.67
2023-03-29T18:28:58.820Z,39.67
2023-03-29T18:31:28.335Z,39.99
2023-03-29T18:33:57.455Z,39.79
2023-03-29T18:36:26.338Z,40.01
2023-03-29T18:38:56.313Z,39.90
2023-03-29T18:41:24.817Z,40.09
2023-03-29T18:43:57.905Z,40.37
2023-03-29T18:46:30.626Z,40.07
2023-03-29T18:49:01.931Z,40.78
2023-03-29T18:51:31.495Z,40.76
2023-03-29T18:54:00.684Z,40.89
2023-03-29T18:56:29.052Z,41.16
2023-03-29T18:58:57.735Z,41.17
2023-03-29T19:01:26.341Z,41.36
2023-03-29T19:03:56.469Z,41.26
2023-03-29T19:06:25.266Z,41.52
2023-03-29T19:08:55.495Z,41.23
2023-03-29T19:11:24.828Z,41.42
2023-03-29T19:13:55.726Z,41.29
2023-03-29T19:16:24.317Z,41.53
2023-03-29T19:18:56.135Z,41.17
2023-03-29T19:21:24.966Z,41.55
2023-03-29T19:23:54.688Z,41.38
2023-03-29T19:26:23.605Z,41.37
2023-03-29T19:28:54.876Z,41.43
2023-03-29T19:31:23.795Z,41.25
2023-03-29T19:33:55.282Z,41.45
2023-03-29T19:36:26.333Z,41.28
2023-03-29T19:38:55.901Z,41.39
2023-03-29T19:41:24.882Z,41.42
2023-03-29T19:43:55.040Z,41.41
2023-03-29T19:46:27.933Z,41.43
2023-03-29T19:49:00.121Z,41.34
2023-03-29T19:51:29.367Z,41.07
2023-03-29T19:53:58.571Z,41.19
2023-03-29T19:56:28.858Z,40.87
2023-03-29T19:58:58.651Z,41.02
2023-03-29T20:01:29.558Z,40.94
2023-03-29T20:04:00.262Z,40.94
2023-03-29T20:06:31.113Z,40.82
2023-03-29T20:09:06.476Z,40.80
2023-03-29T20:11:36.396Z,40.80
2023-03-29T20:14:07.918Z,40.92
2023-03-29T20:16:39.855Z,40.76
2023-03-29T20:19:10.857Z,40.94
2023-03-29T20:21:40.903Z,40.60
2023-03-29T20:24:12.573Z,40.82
2023-03-29T20:26:41.509Z,40.60
2023-03-29T20:29:10.477Z,40.54
2023-03-29T20:31:39.333Z,40.47
2023-03-29T20:34:08.227Z,40.53
2023-03-29T20:36:37.369Z,40.52
2023-03-29T20:39:08.181Z,40.79
2023-03-29T20:41:38.435Z,40.73
2023-03-29T20:44:07.562Z,40.48
2023-03-29T20:46:37.897Z,40.36
2023-03-29T20:49:10.652Z,40.52
2023-03-29T20:51:39.793Z,40.41
2023-03-29T20:54:10.203Z,40.60
2023-03-29T20:56:42.633Z,40.28
2023-03-29T20:59:11.391Z,40.40
2023-03-29T21:01:40.990Z,40.43
2023-03-29T21:04:11.035Z,40.68
2023-03-29T21:06:41.697Z,40.26
2023-03-29T21:09:10.355Z,40.38
2023-03-29T21:11:38.805Z,40.22
2023-03-29T21:14:09.612Z,40.00
2023-03-29T21:16:41.906Z,40.13
2023-03-29T21:19:10.527Z,40.35
2023-03-29T21:21:41.588Z,40.22
2023-03-29T21:24:11.144Z,39.95
2023-03-29T21:26:40.874Z,39.84
2023-03-29T21:29:09.410Z,40.07
2023-03-29T21:31:37.928Z,40.01
2023-03-29T21:34:06.698Z,39.89
2023-03-29T21:36:35.221Z,39.72
2023-03-29T21:39:04.292Z,39.99
2023-03-29T21:41:32.791Z,39.78
2023-03-29T21:44:01.378Z,39.64
2023-03-29T21:46:29.691Z,39.68
2023-03-29T21:48:58.501Z,39.58
2023-03-29T21:51:27.230Z,39.58
2023-03-29T21:53:55.908Z,39.61
2023-03-29T21:56:24.217Z,39.20
2023-03-29T21:58:52.842Z,39.36
2023-03-29T22:01:21.074Z,39.40
2023-03-29T22:03:49.563Z,39.49
2023-03-29T22:06:17.922Z,39.05
2023-03-29T22:08:46.969Z,39.36
2023-03-29T22:11:16.521Z,39.07
2023-03-29T22:13:45.467Z,39.13
2023-03-29T22:16:16.865Z,39.08
2023-03-29T22:18:49.656Z,39.16
2023-03-29T22:21:26.831Z,39.00
2023-03-29T22:23:56.674Z,38.99
2023-03-29T22:26:28.178Z,39.06
2023-03-29T22:28:57.690Z,38.90
2023-03-29T22:31:28.488Z,38.78
2023-03-29T22:33:58.617Z,39.00
2023-03-29T22:36:29.239Z,38.71
2023-03-29T22:38:57.921Z,38.95
2023-03-29T22:41:28.238Z,38.92
2023-03-29T22:43:58.578Z,38.69
2023-03-29T22:46:27.407Z,38.70
2023-03-29T22:48:56.021Z,38.69
2023-03-29T22:51:24.186Z,38.99
2023-03-29T22:53:52.798Z,39.17
2023-03-29T22:56:22.340Z,38.79
2023-03-29T22:58:51.309Z,38.86
2023-03-29T23:01:19.545Z,38.84
2023-03-29T23:03:48.148Z,38.77
2023-03-29T23:06:16.765Z,38.93
2023-03-29T23:08:45.310Z,38.86
2023-03-29T23:11:13.539Z,39.05
2023-03-29T23:13:42.476Z,38.96
2023-03-29T23:16:10.758Z,38.94
2023-03-29T23:18:39.412Z,38.91
2023-03-29T23:21:09.200Z,38.76
2023-03-29T23:23:38.477Z,39.07
2023-03-29T23:26:09.304Z,39.09
2023-03-29T23:28:38.148Z,39.06
2023-03-29T23:31:12.273Z,39.30
2023-03-29T23:33:42.931Z,39.12
2023-03-29T23:36:17.005Z,39.34
2023-03-29T23:38:47.020Z,39.19
2023-03-29T23:41:17.890Z,38.93
2023-03-29T23:43:50.333Z,39.10
2023-03-29T23:46:19.141Z,39.38
2023-03-29T23:48:49.351Z,39.02
2023-03-29T23:51:18.943Z,39.16
2023-03-29T23:53:48.013Z,39.20
2023-03-29T23:56:16.422Z,39.27
2023-03-29T23:58:45.298Z,39.27
